Latest Weather Observations for Onslow Airport

IDW60801

Issued at 9:03 am WST Monday 26 August 2019 (issued every 10 minutes, with the page automatically refreshed every 10 minutes)

About weather observations | Map of weather stations | Latest weather observations for WA | Other Formats
Station Details ID: 005017 Name: ONSLOW AIRPORT Lat: -21.67 Lon: 115.11 Height: 10.5 m
Data from the previous 72 hours. | See also: Recent months at Onslow Airport
Date/Time
WST
Temp
°C
App
Temp
°C
Dew
Point
°C
Rel
Hum
%
Delta-T
°C
Wind Press
QNH
hPa
Press
MSL
hPa
Rain since
9am
mm
Dir  Spd
km/h
Gust
km/h
Spd
kts
Gust
kts
26/09:00am 19.6 15.3 7.7 46 6.1 S 20 24 11 13 1015.4 1015.4 0.0
26/08:30am 17.7 13.1 8.0 53 4.9 SSW 22 26 12 14 1015.5 1015.5 0.0
26/08:00am 16.4 11.4 8.1 58 4.2 SSW 24 30 13 16 1015.4 1015.4 0.0
26/07:30am 14.8 10.2 8.1 64 3.4 SSW 22 28 12 15 1015.2 1015.2 0.0
26/07:00am 14.2 9.9 7.9 66 3.1 SSW 20 26 11 14 1015.1 1015.1 0.0
26/06:30am 14.0 9.9 8.0 67 3.0 SSW 19 24 10 13 1014.8 1014.8 0.0
26/06:00am 14.1 9.4 7.9 66 3.1 SW 22 26 12 14 1014.6 1014.6 0.0
26/05:30am 14.4 9.7 7.7 64 3.3 SW 22 30 12 16 1014.7 1014.7 0.0
26/05:00am 14.5 10.1 7.3 62 3.5 SW 20 26 11 14 1014.4 1014.4 0.0
26/04:30am 14.5 9.5 6.6 59 3.8 SW 22 26 12 14 1014.3 1014.3 0.0
26/04:00am 14.7 10.1 6.3 57 4.0 SW 20 24 11 13 1014.4 1014.4 0.0
26/03:30am 15.0 10.3 6.0 55 4.3 SW 20 24 11 13 1014.5 1014.5 0.0
26/03:00am 15.5 10.7 5.7 52 4.7 SW 20 24 11 13 1014.7 1014.7 0.0
26/02:30am 16.0 11.1 5.3 49 5.1 SW 20 28 11 15 1014.9 1014.9 0.0
26/02:00am 16.4 11.5 5.1 47 5.4 SW 20 24 11 13 1015.1 1015.1 0.0
26/01:30am 16.9 11.9 4.6 44 5.8 SW 20 30 11 16 1015.3 1015.3 0.0
26/01:00am 17.4 12.2 3.7 40 6.4 SW 20 28 11 15 1015.3 1015.3 0.0
26/12:30am 17.7 12.5 3.6 39 6.6 SW 20 26 11 14 1015.3 1015.3 0.0
26/12:00am 18.2 13.0 3.3 37 6.9 SW 20 26 11 14 1015.4 1015.4 0.0
 
Date/Time
WST
Temp
°C
App
Temp
°C
Dew
Point
°C
Rel
Hum
%
Delta-T
°C
Wind Press
QNH
hPa
Press
MSL
hPa
Rain since
9am
mm
Dir  Spd
km/h
Gust
km/h
Spd
kts
Gust
kts
25/11:30pm 18.8 13.6 3.8 37 7.1 SW 20 26 11 14 1015.4 1015.4 0.0
25/11:00pm 19.4 13.5 5.8 41 6.7 SW 26 33 14 18 1015.5 1015.5 0.0
25/10:30pm 19.8 14.8 7.9 46 6.1 SW 24 32 13 17 1015.5 1015.5 0.0
25/10:00pm 20.2 15.9 9.5 50 5.7 SW 22 30 12 16 1015.4 1015.4 0.0
25/09:30pm 20.4 16.7 10.2 52 5.5 WSW 20 28 11 15 1015.5 1015.5 0.0
25/09:00pm 20.7 17.0 9.6 49 5.9 WSW 19 24 10 13 1015.4 1015.4 0.0
25/08:30pm 21.0 17.4 10.5 51 5.7 WSW 20 24 11 13 1015.3 1015.3 0.0
25/08:00pm 21.1 17.9 12.0 56 5.1 W 20 26 11 14 1015.3 1015.3 0.0
25/07:30pm 20.9 18.4 14.1 65 3.9 W 20 24 11 13 1015.0 1015.0 0.0
25/07:00pm 21.2 18.4 14.4 65 4.0 W 22 28 12 15 1014.7 1014.7 0.0
25/06:30pm 21.4 18.8 13.8 62 4.4 WNW 20 26 11 14 1014.3 1014.3 0.0
25/06:00pm 22.4 19.0 12.4 53 5.7 WNW 22 28 12 15 1014.1 1014.1 0.0
25/05:30pm 24.3 20.0 10.6 42 7.6 W 24 32 13 17 1013.9 1013.9 0.0
25/05:00pm 25.3 20.4 10.0 38 8.4 W 26 33 14 18 1013.6 1013.6 0.0
25/04:30pm 26.3 21.6 10.5 37 8.8 W 26 33 14 18 1013.4 1013.4 0.0
25/04:00pm 25.8 20.6 11.6 41 8.1 WNW 30 37 16 20 1013.3 1013.3 0.0
25/03:30pm 26.1 20.0 9.9 36 9.0 W 32 39 17 21 1013.3 1013.3 0.0
25/03:00pm 26.1 20.2 10.3 37 8.8 WNW 32 41 17 22 1013.4 1013.4 0.0
25/02:30pm 25.4 19.2 10.1 38 8.5 WNW 33 41 18 22 1013.6 1013.6 0.0
25/02:00pm 25.2 20.0 12.8 46 7.2 WNW 32 39 17 21 1014.0 1014.0 0.0
25/01:30pm 24.9 20.2 13.1 48 6.9 WNW 30 33 16 18 1014.5 1014.5 0.0
25/01:00pm 25.2 20.8 11.7 43 7.7 WNW 26 33 14 18 1015.0 1015.0 0.0
25/12:30pm 25.9 22.1 11.3 40 8.3 WNW 22 28 12 15 1015.4 1015.4 0.0
25/12:00pm 26.2 23.2 9.1 34 9.3 W 15 24 8 13 1015.9 1015.9 0.0
25/11:30am 25.2 21.9 6.4 30 9.7 WSW 13 20 7 11 1016.5 1016.5 0.0
25/11:00am 24.4 20.8 6.6 32 9.2 SSW 15 20 8 11 1017.1 1017.1 0.0
25/10:30am 22.5 18.4 6.3 35 8.2 SW 17 22 9 12 1017.4 1017.4 0.0
25/10:00am 21.6 17.6 6.7 38 7.6 SSW 17 20 9 11 1017.6 1017.6 0.0
25/09:30am 19.9 15.3 6.6 42 6.7 SSW 20 24 11 13 1018.0 1018.0 0.0
25/09:00am 18.5 13.7 7.3 48 5.6 SSW 22 28 12 15 1017.9 1017.9 0.0
25/08:30am 17.3 12.1 7.4 52 5.0 SSW 24 30 13 16 1017.7 1017.7 0.0
25/08:00am 16.0 10.4 7.0 55 4.4 SSW 26 33 14 18 1017.6 1017.6 0.0
25/07:30am 14.9 9.9 6.5 57 4.1 SW 22 30 12 16 1017.6 1017.6 0.0
25/07:00am 14.3 8.9 6.2 58 3.9 SW 24 32 13 17 1017.2 1017.2 0.0
25/06:30am 14.2 8.7 5.8 57 4.0 SW 24 30 13 16 1017.0 1017.0 0.0
25/06:00am 14.4 9.2 5.7 56 4.1 SW 22 28 12 15 1017.0 1017.0 0.0
25/05:30am 14.7 9.6 5.8 55 4.2 SW 22 28 12 15 1016.5 1016.5 0.0
25/05:00am 14.9 9.7 5.7 54 4.4 SW 22 30 12 16 1016.1 1016.1 0.0
25/04:30am 15.2 9.7 6.0 54 4.4 SW 24 30 13 16 1015.9 1015.9 0.0
25/04:00am 15.4 10.7 6.2 54 4.4 SW 20 28 11 15 1016.2 1016.2 0.0
25/03:30am 15.7 10.6 6.2 53 4.6 SW 22 26 12 14 1016.4 1016.4 0.0
25/03:00am 16.2 11.6 6.3 52 4.8 SW 20 26 11 14 1016.6 1016.6 0.0
25/02:30am 16.8 12.2 6.3 50 5.1 SW 20 28 11 15 1016.6 1016.6 0.0
25/02:00am 17.4 12.4 6.6 49 5.3 SW 22 30 12 16 1016.8 1016.8 0.0
25/01:30am 17.9 11.8 6.7 48 5.6 SW 28 35 15 19 1016.7 1016.7 0.0
25/01:00am 18.2 13.4 7.3 49 5.5 SW 22 30 12 16 1016.9 1016.9 0.0
25/12:30am 18.6 13.8 8.8 53 5.1 SW 24 30 13 16 1017.0 1017.0 0.0
25/12:00am 18.8 15.4 10.4 58 4.5 SW 19 24 10 13 1017.1 1017.1 0.0
 
Date/Time
WST
Temp
°C
App
Temp
°C
Dew
Point
°C
Rel
Hum
%
Delta-T
°C
Wind Press
QNH
hPa
Press
MSL
hPa
Rain since
9am
mm
Dir  Spd
km/h
Gust
km/h
Spd
kts
Gust
kts
24/11:30pm 19.2 16.1 11.5 61 4.2 SW 19 22 10 12 1017.1 1017.1 0.0
24/11:00pm 19.5 16.2 11.0 58 4.6 WSW 19 26 10 14 1017.4 1017.4 0.0
24/10:30pm 19.7 17.0 10.4 55 5.0 WSW 15 20 8 11 1017.5 1017.5 0.0
24/10:00pm 19.9 17.1 11.4 58 4.7 WSW 17 20 9 11 1017.7 1017.7 0.0
24/09:30pm 20.5 17.6 13.0 62 4.3 WSW 20 26 11 14 1017.9 1017.9 0.0
24/09:00pm 19.9 17.6 13.1 65 3.9 W 17 20 9 11 1017.9 1017.9 0.0
24/08:30pm 20.0 18.6 14.6 71 3.1 WSW 15 19 8 10 1017.7 1017.7 0.0
24/08:00pm 20.1 18.4 14.7 71 3.2 W 17 20 9 11 1017.5 1017.5 0.0
24/07:30pm 20.6 19.0 14.9 70 3.3 W 17 20 9 11 1017.2 1017.2 0.0
24/07:00pm 21.3 19.4 14.2 64 4.1 W 17 24 9 13 1016.9 1016.9 0.0
24/06:30pm 22.1 19.3 12.6 55 5.4 W 19 24 10 13 1016.6 1016.6 0.0
24/06:00pm 23.1 20.3 12.7 52 5.9 W 19 24 10 13 1016.3 1016.3 0.0
24/05:30pm 24.4 20.4 11.7 45 7.2 W 24 32 13 17 1016.1 1016.1 0.0
24/05:00pm 25.1 20.1 10.9 41 7.9 WNW 28 35 15 19 1016.0 1016.0 0.0
24/04:30pm 25.8 20.0 9.6 36 8.9 WNW 30 37 16 20 1015.6 1015.6 0.0
24/04:00pm 26.4 20.9 10.5 37 8.9 WNW 30 37 16 20 1015.6 1015.6 0.0
24/03:30pm 26.4 21.2 12.8 43 7.9 W 32 39 17 21 1015.5 1015.5 0.0
24/03:00pm 26.6 21.7 12.6 42 8.1 WNW 30 35 16 19 1015.7 1015.7 0.0
24/02:30pm 26.6 22.6 14.0 46 7.5 WNW 28 33 15 18 1015.8 1015.8 0.0
24/02:00pm 27.4 23.8 14.1 44 7.9 WNW 26 32 14 17 1016.2 1016.2 0.0
24/01:30pm 27.8 23.8 11.8 37 9.2 WNW 24 32 13 17 1016.7 1016.7 0.0
24/01:00pm 28.1 24.9 12.0 36 9.3 WNW 20 24 11 13 1016.9 1016.9 0.0
24/12:30pm 28.8 26.4 12.7 37 9.5 NNW 17 24 9 13 1017.4 1017.4 0.0
24/12:00pm 29.0 26.5 9.7 30 10.8 SSE 13 17 7 9 1017.8 1017.8 0.0
24/11:30am 28.6 26.3 10.3 32 10.3 SE 13 20 7 11 1018.3 1018.3 0.0
24/11:00am 27.9 25.9 10.1 33 10.0 SSE 11 19 6 10 1018.7 1018.7 0.0
24/10:30am 27.2 24.4 10.0 34 9.6 SE 15 20 8 11 1019.0 1019.0 0.0
24/10:00am 26.4 23.2 10.1 36 9.0 SE 17 22 9 12 1019.4 1019.4 0.0
24/09:30am 24.8 20.9 9.5 38 8.4 SSE 20 28 11 15 1019.4 1019.4 0.0
24/09:00am 23.2 19.0 9.6 42 7.4 SSE 22 26 12 14 1019.4 1019.4 0.0
24/08:30am 21.3 16.5 8.9 45 6.6 S 24 30 13 16 1019.2 1019.2 0.0
24/08:00am 19.7 15.2 8.4 48 5.9 S 22 30 12 16 1019.2 1019.2 0.0
24/07:30am 18.0 14.0 8.3 53 5.0 SSW 19 22 10 12 1019.2 1019.2 0.0
24/07:00am 17.3 13.1 8.2 55 4.6 SSW 20 24 11 13 1019.1 1019.1 0.0
24/06:30am 17.1 12.5 8.0 55 4.6 SSW 22 28 12 15 1019.0 1019.0 0.0
24/06:00am 17.4 12.8 8.3 55 4.6 SSW 22 26 12 14 1019.0 1019.0 0.0
24/05:30am 17.6 13.5 8.5 55 4.7 SSW 20 26 11 14 1018.8 1018.8 0.0
24/05:00am 18.0 13.5 8.6 54 4.8 SSW 22 28 12 15 1018.7 1018.7 0.0
24/04:30am 18.4 14.0 8.9 54 4.9 SSW 22 28 12 15 1018.4 1018.4 0.0
24/04:00am 18.7 13.9 8.9 53 5.1 SSW 24 30 13 16 1018.3 1018.3 0.0
24/03:30am 18.8 14.9 9.6 55 4.9 SSW 20 26 11 14 1018.4 1018.4 0.0
24/03:00am 19.2 15.4 9.9 55 4.9 SSW 20 26 11 14 1018.5 1018.5 0.0
24/02:30am 19.4 15.7 10.1 55 5.0 SSW 20 28 11 15 1018.6 1018.6 0.0
24/02:00am 19.7 15.4 10.9 57 4.8 SSW 24 30 13 16 1018.5 1018.5 0.0
24/01:30am 19.8 16.3 12.3 62 4.2 SSW 22 26 12 14 1018.6 1018.6 0.0
24/01:00am 19.6 17.4 13.3 67 3.6 SW 17 20 9 11 1018.7 1018.7 0.0
24/12:30am 20.1 17.8 14.0 68 3.5 SW 19 20 10 11 1018.9 1018.9 0.0
24/12:00am 20.2 18.7 15.2 73 2.9 SW 17 19 9 10 1019.0 1019.0 0.0
 
Date/Time
WST
Temp
°C
App
Temp
°C
Dew
Point
°C
Rel
Hum
%
Delta-T
°C
Wind Press
QNH
hPa
Press
MSL
hPa
Rain since
9am
mm
Dir  Spd
km/h
Gust
km/h
Spd
kts
Gust
kts
23/11:30pm 19.6 19.1 15.9 79 2.2 SW 13 17 7 9 1019.1 1019.1 0.0
23/11:00pm 19.5 19.5 16.2 81 2.0 WSW 11 15 6 8 1019.0 1019.0 0.0
23/10:30pm 19.9 19.6 16.5 81 2.0 W 13 15 7 8 1019.1 1019.1 0.0
23/10:00pm 20.7 20.3 18.1 85 1.6 W 17 20 9 11 1019.1 1019.1 0.0
23/09:30pm 20.9 20.8 18.7 87 1.4 W 17 22 9 12 1019.3 1019.3 0.0
23/09:00pm 21.2 20.6 18.8 86 1.5 W 20 24 11 13 1019.3 1019.3 0.0
23/08:30pm 21.2 20.7 18.6 85 1.6 W 19 24 10 13 1019.0 1019.0 0.0
23/08:00pm 21.2 21.0 18.6 85 1.6 W 17 20 9 11 1018.7 1018.7 0.0
23/07:30pm 20.9 20.8 17.9 83 1.9 W 15 19 8 10 1018.3 1018.3 0.0
23/07:00pm 21.0 20.7 17.4 80 2.2 WNW 15 19 8 10 1018.1 1018.1 0.0
23/06:30pm 21.4 20.4 16.6 74 2.9 WNW 17 20 9 11 1017.9 1017.9 0.0
23/06:00pm 22.7 21.7 16.7 69 3.7 WNW 17 20 9 11 1017.8 1017.8 0.0
23/05:30pm 23.8 22.4 17.1 66 4.1 WNW 20 24 11 13 1017.7 1017.7 0.0
23/05:00pm 23.6 22.1 17.8 70 3.6 WNW 22 26 12 14 1017.6 1017.6 0.0
23/04:30pm 22.8 20.0 17.3 71 3.4 WNW 28 33 15 18 1017.5 1017.5 0.0
23/04:00pm 23.3 20.9 17.3 69 3.7 WNW 26 35 14 19 1017.5 1017.5 0.0
23/03:30pm 24.3 23.0 17.3 65 4.3 NW 20 26 11 14 1017.5 1017.5 0.0
23/03:00pm 24.7 22.7 16.4 60 5.1 NW 22 28 12 15 1017.6 1017.6 0.0
23/02:30pm 26.2 24.2 17.3 58 5.6 WNW 24 28 13 15 1017.8 1017.8 0.0
23/02:00pm 25.0 22.8 17.0 61 4.9 WNW 24 28 13 15 1018.0 1018.0 0.0
23/01:30pm 26.4 24.2 16.9 56 5.9 WNW 24 28 13 15 1018.2 1018.2 0.0
23/01:00pm 26.4 24.8 16.6 55 6.1 WNW 20 26 11 14 1018.5 1018.5 0.0
23/12:30pm 27.0 25.5 16.3 52 6.6 WNW 19 26 10 14 1018.7 1018.7 0.0
23/12:00pm 27.0 25.9 16.3 52 6.6 WNW 17 26 9 14 1019.1 1019.1 0.0
23/11:30am 27.0 26.0 15.7 50 6.9 SSW 15 24 8 13 1019.6 1019.6 0.0
23/11:00am 25.8 25.7 16.1 55 5.9 SSW 11 20 6 11 1019.7 1019.7 0.0
23/10:30am 25.5 25.6 16.6 58 5.5 S 11 15 6 8 1020.1 1020.1 0.0
23/10:00am 24.8 25.3 16.5 60 5.1 SSE 9 13 5 7 1020.5 1020.5 0.0
23/09:30am 23.7 23.3 16.2 63 4.6 ESE 13 15 7 8 1020.6 1020.6 0.0

Other formats

Comma delimited format used in spreadsheet applications
http://www.bom.gov.au/fwo/IDW60801/IDW60801.95305.axf

JavaScript Object Notation format (JSON) in row-major order
http://www.bom.gov.au/fwo/IDW60801/IDW60801.95305.json

Data quality

Most of these data are generated automatically and are frequently updated. Quality checks on data are not normally performed. It is possible for incorrect values to appear. Refer to information at About Latest Weather Observations and please check the disclaimer before using these data.